sensor_id;sensor_type;location;lat;lon;timestamp;temperature;humidity
68251;DHT22;55066;51.560;4.642;2024-03-08T00:01:47;3.74;99.99
68251;DHT22;55066;51.560;4.642;2024-03-08T00:04:13;3.80;99.99
68251;DHT22;55066;51.560;4.642;2024-03-08T00:06:41;3.64;99.99
68251;DHT22;55066;51.560;4.642;2024-03-08T00:09:06;3.66;99.99
68251;DHT22;55066;51.560;4.642;2024-03-08T00:11:35;3.62;99.99
68251;DHT22;55066;51.560;4.642;2024-03-08T00:14:01;3.64;99.99
68251;DHT22;55066;51.560;4.642;2024-03-08T00:16:26;3.56;99.99
68251;DHT22;55066;51.560;4.642;2024-03-08T00:18:52;3.67;99.99
68251;DHT22;55066;51.560;4.642;2024-03-08T00:21:18;3.63;99.99
68251;DHT22;55066;51.560;4.642;2024-03-08T00:23:43;3.58;99.99
68251;DHT22;55066;51.560;4.642;2024-03-08T00:26:10;3.64;99.99
68251;DHT22;55066;51.560;4.642;2024-03-08T00:28:36;3.59;99.99
68251;DHT22;55066;51.560;4.642;2024-03-08T00:31:01;3.58;99.99
68251;DHT22;55066;51.560;4.642;2024-03-08T00:33:26;3.60;99.99
68251;DHT22;55066;51.560;4.642;2024-03-08T00:35:53;3.64;99.99
68251;DHT22;55066;51.560;4.642;2024-03-08T00:38:19;3.66;99.99
68251;DHT22;55066;51.560;4.642;2024-03-08T00:40:45;3.51;99.99
68251;DHT22;55066;51.560;4.642;2024-03-08T00:43:10;3.55;99.99
68251;DHT22;55066;51.560;4.642;2024-03-08T00:45:36;3.48;99.99
68251;DHT22;55066;51.560;4.642;2024-03-08T00:48:03;3.45;99.99
68251;DHT22;55066;51.560;4.642;2024-03-08T00:50:28;3.45;99.99
68251;DHT22;55066;51.560;4.642;2024-03-08T00:52:54;3.39;99.99
68251;DHT22;55066;51.560;4.642;2024-03-08T00:55:19;3.31;99.99
68251;DHT22;55066;51.560;4.642;2024-03-08T00:57:45;3.34;99.99
68251;DHT22;55066;51.560;4.642;2024-03-08T01:00:12;3.32;99.99
68251;DHT22;55066;51.560;4.642;2024-03-08T01:02:38;3.25;99.99
68251;DHT22;55066;51.560;4.642;2024-03-08T01:05:05;3.24;99.99
68251;DHT22;55066;51.560;4.642;2024-03-08T01:07:36;3.21;99.99
68251;DHT22;55066;51.560;4.642;2024-03-08T01:10:03;3.07;99.99
68251;DHT22;55066;51.560;4.642;2024-03-08T01:12:28;3.07;99.99
68251;DHT22;55066;51.560;4.642;2024-03-08T01:14:55;3.11;99.99
68251;DHT22;55066;51.560;4.642;2024-03-08T01:17:22;3.04;99.99
68251;DHT22;55066;51.560;4.642;2024-03-08T01:19:47;3.08;99.99
68251;DHT22;55066;51.560;4.642;2024-03-08T01:22:12;3.12;99.99
68251;DHT22;55066;51.560;4.642;2024-03-08T01:24:38;3.05;99.99
68251;DHT22;55066;51.560;4.642;2024-03-08T01:27:04;3.00;99.99
68251;DHT22;55066;51.560;4.642;2024-03-08T01:29:29;3.04;99.99
68251;DHT22;55066;51.560;4.642;2024-03-08T01:31:55;3.09;99.99
68251;DHT22;55066;51.560;4.642;2024-03-08T01:34:21;3.04;99.99
68251;DHT22;55066;51.560;4.642;2024-03-08T01:36:48;3.05;99.99
68251;DHT22;55066;51.560;4.642;2024-03-08T01:39:14;3.09;99.99
68251;DHT22;55066;51.560;4.642;2024-03-08T01:41:39;3.04;99.99
68251;DHT22;55066;51.560;4.642;2024-03-08T01:44:06;3.01;99.99
68251;DHT22;55066;51.560;4.642;2024-03-08T01:46:35;2.97;99.99
68251;DHT22;55066;51.560;4.642;2024-03-08T01:49:01;2.97;99.99
68251;DHT22;55066;51.560;4.642;2024-03-08T01:51:28;2.91;99.99
68251;DHT22;55066;51.560;4.642;2024-03-08T01:53:55;2.87;99.99
68251;DHT22;55066;51.560;4.642;2024-03-08T01:56:23;2.88;99.99
68251;DHT22;55066;51.560;4.642;2024-03-08T01:58:50;2.88;99.99
68251;DHT22;55066;51.560;4.642;2024-03-08T02:01:16;2.79;99.99
68251;DHT22;55066;51.560;4.642;2024-03-08T02:03:42;2.76;99.99
68251;DHT22;55066;51.560;4.642;2024-03-08T02:06:11;2.72;99.99
68251;DHT22;55066;51.560;4.642;2024-03-08T02:08:37;2.81;99.99
68251;DHT22;55066;51.560;4.642;2024-03-08T02:11:04;2.72;99.99
68251;DHT22;55066;51.560;4.642;2024-03-08T02:13:30;2.70;99.99
68251;DHT22;55066;51.560;4.642;2024-03-08T02:15:57;2.60;99.99
68251;DHT22;55066;51.560;4.642;2024-03-08T02:18:27;2.60;99.99
68251;DHT22;55066;51.560;4.642;2024-03-08T02:20:58;2.61;99.99
68251;DHT22;55066;51.560;4.642;2024-03-08T02:23:25;2.54;99.99
68251;DHT22;55066;51.560;4.642;2024-03-08T02:25:52;2.56;99.99
68251;DHT22;55066;51.560;4.642;2024-03-08T02:28:18;2.56;99.99
68251;DHT22;55066;51.560;4.642;2024-03-08T02:30:44;2.66;99.99
68251;DHT22;55066;51.560;4.642;2024-03-08T02:33:16;2.53;99.99
68251;DHT22;55066;51.560;4.642;2024-03-08T02:35:45;2.38;99.99
68251;DHT22;55066;51.560;4.642;2024-03-08T02:38:12;2.39;99.99
68251;DHT22;55066;51.560;4.642;2024-03-08T02:40:38;2.38;99.99
68251;DHT22;55066;51.560;4.642;2024-03-08T02:43:04;2.42;99.99
68251;DHT22;55066;51.560;4.642;2024-03-08T02:45:30;2.42;99.99
68251;DHT22;55066;51.560;4.642;2024-03-08T02:47:56;2.48;99.99
68251;DHT22;55066;51.560;4.642;2024-03-08T02:50:21;2.41;99.99
68251;DHT22;55066;51.560;4.642;2024-03-08T02:52:48;2.48;99.99
68251;DHT22;55066;51.560;4.642;2024-03-08T02:55:13;2.42;99.99
68251;DHT22;55066;51.560;4.642;2024-03-08T02:57:42;2.50;99.99
68251;DHT22;55066;51.560;4.642;2024-03-08T03:00:10;2.46;99.99
68251;DHT22;55066;51.560;4.642;2024-03-08T03:02:36;2.39;99.99
68251;DHT22;55066;51.560;4.642;2024-03-08T03:05:03;2.46;99.99
68251;DHT22;55066;51.560;4.642;2024-03-08T03:07:32;2.35;99.99
68251;DHT22;55066;51.560;4.642;2024-03-08T03:09:59;2.21;99.99
68251;DHT22;55066;51.560;4.642;2024-03-08T03:12:30;2.29;99.99
68251;DHT22;55066;51.560;4.642;2024-03-08T03:14:56;2.29;99.99
68251;DHT22;55066;51.560;4.642;2024-03-08T03:17:25;2.20;99.99
68251;DHT22;55066;51.560;4.642;2024-03-08T03:19:51;2.31;99.99
68251;DHT22;55066;51.560;4.642;2024-03-08T03:22:18;2.39;99.99
68251;DHT22;55066;51.560;4.642;2024-03-08T03:24:45;2.35;99.99
68251;DHT22;55066;51.560;4.642;2024-03-08T03:27:14;2.32;99.99
68251;DHT22;55066;51.560;4.642;2024-03-08T03:29:41;2.26;99.99
68251;DHT22;55066;51.560;4.642;2024-03-08T03:32:12;2.41;99.99
68251;DHT22;55066;51.560;4.642;2024-03-08T03:34:39;2.39;99.99
68251;DHT22;55066;51.560;4.642;2024-03-08T03:37:05;2.31;99.99
68251;DHT22;55066;51.560;4.642;2024-03-08T03:39:32;2.33;99.99
68251;DHT22;55066;51.560;4.642;2024-03-08T03:41:58;2.31;99.99
68251;DHT22;55066;51.560;4.642;2024-03-08T03:44:24;2.31;99.99
68251;DHT22;55066;51.560;4.642;2024-03-08T03:46:50;2.31;99.99
68251;DHT22;55066;51.560;4.642;2024-03-08T03:49:18;2.25;99.99
68251;DHT22;55066;51.560;4.642;2024-03-08T03:51:43;2.18;99.99
68251;DHT22;55066;51.560;4.642;2024-03-08T03:54:10;2.29;99.99
68251;DHT22;55066;51.560;4.642;2024-03-08T03:56:35;2.17;99.99
68251;DHT22;55066;51.560;4.642;2024-03-08T03:59:01;2.31;99.99
68251;DHT22;55066;51.560;4.642;2024-03-08T04:01:27;2.31;99.99
68251;DHT22;55066;51.560;4.642;2024-03-08T04:03:54;2.32;99.99
68251;DHT22;55066;51.560;4.642;2024-03-08T04:06:21;2.21;99.99
68251;DHT22;55066;51.560;4.642;2024-03-08T04:08:48;2.14;99.99
68251;DHT22;55066;51.560;4.642;2024-03-08T04:11:14;2.14;99.99
68251;DHT22;55066;51.560;4.642;2024-03-08T04:13:41;2.25;99.99
68251;DHT22;55066;51.560;4.642;2024-03-08T04:16:07;2.15;99.99
68251;DHT22;55066;51.560;4.642;2024-03-08T04:18:34;2.10;99.99
68251;DHT22;55066;51.560;4.642;2024-03-08T04:21:02;2.08;99.99
68251;DHT22;55066;51.560;4.642;2024-03-08T04:23:28;2.17;99.99
68251;DHT22;55066;51.560;4.642;2024-03-08T04:25:54;2.15;99.99
68251;DHT22;55066;51.560;4.642;2024-03-08T04:28:19;2.11;99.99
68251;DHT22;55066;51.560;4.642;2024-03-08T04:30:45;2.20;99.99
68251;DHT22;55066;51.560;4.642;2024-03-08T04:33:12;2.26;99.99
68251;DHT22;55066;51.560;4.642;2024-03-08T04:35:43;2.20;99.99
68251;DHT22;55066;51.560;4.642;2024-03-08T04:38:11;2.21;99.99
68251;DHT22;55066;51.560;4.642;2024-03-08T04:40:36;2.00;99.99
68251;DHT22;55066;51.560;4.642;2024-03-08T04:43:02;2.03;99.99
68251;DHT22;55066;51.560;4.642;2024-03-08T04:45:27;1.98;99.99
68251;DHT22;55066;51.560;4.642;2024-03-08T04:47:53;2.12;99.99
68251;DHT22;55066;51.560;4.642;2024-03-08T04:50:18;2.03;99.99
68251;DHT22;55066;51.560;4.642;2024-03-08T04:52:44;1.85;99.99
68251;DHT22;55066;51.560;4.642;2024-03-08T04:55:09;1.98;99.99
68251;DHT22;55066;51.560;4.642;2024-03-08T04:57:35;2.01;99.99
68251;DHT22;55066;51.560;4.642;2024-03-08T05:00:04;1.87;99.99
68251;DHT22;55066;51.560;4.642;2024-03-08T05:02:41;1.81;99.99
68251;DHT22;55066;51.560;4.642;2024-03-08T05:05:07;1.84;99.99
68251;DHT22;55066;51.560;4.642;2024-03-08T05:07:34;1.90;99.99
68251;DHT22;55066;51.560;4.642;2024-03-08T05:10:00;1.84;99.99
68251;DHT22;55066;51.560;4.642;2024-03-08T05:12:27;1.84;99.99
68251;DHT22;55066;51.560;4.642;2024-03-08T05:14:53;1.85;99.99
68251;DHT22;55066;51.560;4.642;2024-03-08T05:17:19;1.85;99.99
68251;DHT22;55066;51.560;4.642;2024-03-08T05:19:45;1.78;99.99
68251;DHT22;55066;51.560;4.642;2024-03-08T05:22:11;1.84;99.99
68251;DHT22;55066;51.560;4.642;2024-03-08T05:24:38;1.97;99.99
68251;DHT22;55066;51.560;4.642;2024-03-08T05:27:03;1.83;99.99
68251;DHT22;55066;51.560;4.642;2024-03-08T05:29:29;1.71;99.99
68251;DHT22;55066;51.560;4.642;2024-03-08T05:31:55;1.77;99.99
68251;DHT22;55066;51.560;4.642;2024-03-08T05:34:22;1.83;99.99
68251;DHT22;55066;51.560;4.642;2024-03-08T05:36:51;1.70;99.99
68251;DHT22;55066;51.560;4.642;2024-03-08T05:39:17;1.71;99.99
68251;DHT22;55066;51.560;4.642;2024-03-08T05:41:43;1.73;99.99
68251;DHT22;55066;51.560;4.642;2024-03-08T05:44:09;1.76;99.99
68251;DHT22;55066;51.560;4.642;2024-03-08T05:46:36;1.87;99.99
68251;DHT22;55066;51.560;4.642;2024-03-08T05:49:02;1.77;99.99
68251;DHT22;55066;51.560;4.642;2024-03-08T05:51:31;1.68;99.99
68251;DHT22;55066;51.560;4.642;2024-03-08T05:54:03;1.57;99.99
68251;DHT22;55066;51.560;4.642;2024-03-08T05:56:31;1.62;99.99
68251;DHT22;55066;51.560;4.642;2024-03-08T05:58:57;1.52;99.99
68251;DHT22;55066;51.560;4.642;2024-03-08T06:01:26;1.55;99.99
68251;DHT22;55066;51.560;4.642;2024-03-08T06:03:55;1.70;99.99
68251;DHT22;55066;51.560;4.642;2024-03-08T06:06:23;1.73;99.99
68251;DHT22;55066;51.560;4.642;2024-03-08T06:08:49;1.70;99.99
68251;DHT22;55066;51.560;4.642;2024-03-08T06:11:19;1.63;99.99
68251;DHT22;55066;51.560;4.642;2024-03-08T06:13:46;1.59;99.99
68251;DHT22;55066;51.560;4.642;2024-03-08T06:16:11;1.56;99.99
68251;DHT22;55066;51.560;4.642;2024-03-08T06:18:37;1.56;99.99
68251;DHT22;55066;51.560;4.642;2024-03-08T06:21:05;1.55;99.99
68251;DHT22;55066;51.560;4.642;2024-03-08T06:23:35;1.63;99.99
68251;DHT22;55066;51.560;4.642;2024-03-08T06:26:09;1.66;99.99
68251;DHT22;55066;51.560;4.642;2024-03-08T06:28:35;1.62;99.99
68251;DHT22;55066;51.560;4.642;2024-03-08T06:31:01;1.59;99.99
68251;DHT22;55066;51.560;4.642;2024-03-08T06:33:27;1.57;99.99
68251;DHT22;55066;51.560;4.642;2024-03-08T06:35:54;1.62;99.99
68251;DHT22;55066;51.560;4.642;2024-03-08T06:38:26;1.53;99.99
68251;DHT22;55066;51.560;4.642;2024-03-08T06:40:52;1.76;99.99
68251;DHT22;55066;51.560;4.642;2024-03-08T06:43:18;1.71;99.99
68251;DHT22;55066;51.560;4.642;2024-03-08T06:45:44;1.77;99.99
68251;DHT22;55066;51.560;4.642;2024-03-08T06:48:22;1.83;99.99
68251;DHT22;55066;51.560;4.642;2024-03-08T06:50:48;1.77;99.99
68251;DHT22;55066;51.560;4.642;2024-03-08T06:53:14;1.78;99.99
68251;DHT22;55066;51.560;4.642;2024-03-08T06:55:40;1.78;99.99
68251;DHT22;55066;51.560;4.642;2024-03-08T06:58:07;1.84;99.99
68251;DHT22;55066;51.560;4.642;2024-03-08T07:00:33;1.90;99.99
68251;DHT22;55066;51.560;4.642;2024-03-08T07:02:59;2.01;99.99
68251;DHT22;55066;51.560;4.642;2024-03-08T07:05:30;2.03;99.99
68251;DHT22;55066;51.560;4.642;2024-03-08T07:07:56;1.97;99.99
68251;DHT22;55066;51.560;4.642;2024-03-08T07:10:23;2.08;99.99
68251;DHT22;55066;51.560;4.642;2024-03-08T07:12:52;2.11;99.99
68251;DHT22;55066;51.560;4.642;2024-03-08T07:15:18;2.21;99.99
68251;DHT22;55066;51.560;4.642;2024-03-08T07:17:46;2.32;99.99
68251;DHT22;55066;51.560;4.642;2024-03-08T07:20:13;2.36;99.99
68251;DHT22;55066;51.560;4.642;2024-03-08T07:22:39;2.39;99.99
68251;DHT22;55066;51.560;4.642;2024-03-08T07:25:05;2.43;99.99
68251;DHT22;55066;51.560;4.642;2024-03-08T07:27:50;2.49;99.99
68251;DHT22;55066;51.560;4.642;2024-03-08T07:30:16;2.50;99.99
68251;DHT22;55066;51.560;4.642;2024-03-08T07:33:02;2.54;99.99
68251;DHT22;55066;51.560;4.642;2024-03-08T07:35:28;2.59;99.99
68251;DHT22;55066;51.560;4.642;2024-03-08T07:37:54;2.63;99.99
68251;DHT22;55066;51.560;4.642;2024-03-08T07:40:23;2.70;99.99
68251;DHT22;55066;51.560;4.642;2024-03-08T07:42:52;2.70;99.99
68251;DHT22;55066;51.560;4.642;2024-03-08T07:45:17;2.77;99.99
68251;DHT22;55066;51.560;4.642;2024-03-08T07:47:43;2.83;99.99
68251;DHT22;55066;51.560;4.642;2024-03-08T07:50:09;2.87;99.99
68251;DHT22;55066;51.560;4.642;2024-03-08T07:52:35;2.94;99.99
68251;DHT22;55066;51.560;4.642;2024-03-08T07:55:02;3.01;99.99
68251;DHT22;55066;51.560;4.642;2024-03-08T07:57:29;3.07;99.99
68251;DHT22;55066;51.560;4.642;2024-03-08T07:59:55;3.12;99.99
68251;DHT22;55066;51.560;4.642;2024-03-08T08:02:21;3.14;99.99
68251;DHT22;55066;51.560;4.642;2024-03-08T08:04:46;3.21;99.99
68251;DHT22;55066;51.560;4.642;2024-03-08T08:07:12;3.25;99.99
68251;DHT22;55066;51.560;4.642;2024-03-08T08:09:37;3.29;99.99
68251;DHT22;55066;51.560;4.642;2024-03-08T08:12:03;3.35;99.99
68251;DHT22;55066;51.560;4.642;2024-03-08T08:14:29;3.43;99.99
68251;DHT22;55066;51.560;4.642;2024-03-08T08:16:55;3.53;99.99
68251;DHT22;55066;51.560;4.642;2024-03-08T08:19:26;3.59;99.99
68251;DHT22;55066;51.560;4.642;2024-03-08T08:21:53;3.66;99.99
68251;DHT22;55066;51.560;4.642;2024-03-08T08:24:18;3.73;99.99
68251;DHT22;55066;51.560;4.642;2024-03-08T08:26:47;3.76;99.99
68251;DHT22;55066;51.560;4.642;2024-03-08T08:29:12;3.84;99.99
68251;DHT22;55066;51.560;4.642;2024-03-08T08:31:38;3.93;99.99
68251;DHT22;55066;51.560;4.642;2024-03-08T08:34:04;4.01;99.99
68251;DHT22;55066;51.560;4.642;2024-03-08T08:36:30;4.11;99.99
68251;DHT22;55066;51.560;4.642;2024-03-08T08:38:56;4.15;99.42
68251;DHT22;55066;51.560;4.642;2024-03-08T08:41:25;4.21;99.99
68251;DHT22;55066;51.560;4.642;2024-03-08T08:43:50;4.34;99.74
68251;DHT22;55066;51.560;4.642;2024-03-08T08:46:17;4.28;99.46
68251;DHT22;55066;51.560;4.642;2024-03-08T08:48:43;4.45;98.76
68251;DHT22;55066;51.560;4.642;2024-03-08T08:51:13;4.38;99.69
68251;DHT22;55066;51.560;4.642;2024-03-08T08:53:40;4.44;99.06
68251;DHT22;55066;51.560;4.642;2024-03-08T08:56:09;4.53;98.37
68251;DHT22;55066;51.560;4.642;2024-03-08T08:58:42;4.67;98.60
68251;DHT22;55066;51.560;4.642;2024-03-08T09:01:08;4.79;98.97
68251;DHT22;55066;51.560;4.642;2024-03-08T09:03:38;4.77;98.49
68251;DHT22;55066;51.560;4.642;2024-03-08T09:06:06;4.84;98.31
68251;DHT22;55066;51.560;4.642;2024-03-08T09:08:35;5.00;97.63
68251;DHT22;55066;51.560;4.642;2024-03-08T09:11:01;5.11;97.86
68251;DHT22;55066;51.560;4.642;2024-03-08T09:13:27;5.14;97.94
68251;DHT22;55066;51.560;4.642;2024-03-08T09:15:53;5.14;98.04
68251;DHT22;55066;51.560;4.642;2024-03-08T09:18:18;5.22;97.69
68251;DHT22;55066;51.560;4.642;2024-03-08T09:20:46;5.42;96.77
68251;DHT22;55066;51.560;4.642;2024-03-08T09:23:12;5.45;96.44
68251;DHT22;55066;51.560;4.642;2024-03-08T09:25:39;5.39;96.62
68251;DHT22;55066;51.560;4.642;2024-03-08T09:28:04;5.52;96.54
68251;DHT22;55066;51.560;4.642;2024-03-08T09:30:31;5.69;96.55
68251;DHT22;55066;51.560;4.642;2024-03-08T09:32:57;5.51;97.08
68251;DHT22;55066;51.560;4.642;2024-03-08T09:35:22;5.73;96.00
68251;DHT22;55066;51.560;4.642;2024-03-08T09:37:49;5.83;95.84
68251;DHT22;55066;51.560;4.642;2024-03-08T09:40:17;6.00;95.35
68251;DHT22;55066;51.560;4.642;2024-03-08T09:42:45;5.89;95.95
68251;DHT22;55066;51.560;4.642;2024-03-08T09:45:12;6.17;95.26
68251;DHT22;55066;51.560;4.642;2024-03-08T09:47:44;6.24;95.07
68251;DHT22;55066;51.560;4.642;2024-03-08T09:50:11;6.16;95.12
68251;DHT22;55066;51.560;4.642;2024-03-08T09:52:49;6.31;95.27
68251;DHT22;55066;51.560;4.642;2024-03-08T09:55:16;6.32;94.63
68251;DHT22;55066;51.560;4.642;2024-03-08T09:57:45;6.31;94.41
68251;DHT22;55066;51.560;4.642;2024-03-08T10:00:30;6.50;93.35
68251;DHT22;55066;51.560;4.642;2024-03-08T10:03:01;6.66;93.62
68251;DHT22;55066;51.560;4.642;2024-03-08T10:05:31;6.62;93.94
68251;DHT22;55066;51.560;4.642;2024-03-08T10:07:59;6.75;92.91
68251;DHT22;55066;51.560;4.642;2024-03-08T10:10:24;6.82;93.10
68251;DHT22;55066;51.560;4.642;2024-03-08T10:12:51;6.83;92.90
68251;DHT22;55066;51.560;4.642;2024-03-08T10:15:18;6.93;93.31
68251;DHT22;55066;51.560;4.642;2024-03-08T10:17:46;6.76;94.30
68251;DHT22;55066;51.560;4.642;2024-03-08T10:20:18;7.01;92.53
68251;DHT22;55066;51.560;4.642;2024-03-08T10:22:44;7.04;92.55
68251;DHT22;55066;51.560;4.642;2024-03-08T10:25:11;7.11;91.76
68251;DHT22;55066;51.560;4.642;2024-03-08T10:27:39;7.21;92.35
68251;DHT22;55066;51.560;4.642;2024-03-08T10:30:10;7.39;91.76
68251;DHT22;55066;51.560;4.642;2024-03-08T10:32:35;7.77;91.22
68251;DHT22;55066;51.560;4.642;2024-03-08T10:35:03;7.62;91.78
68251;DHT22;55066;51.560;4.642;2024-03-08T10:37:29;7.79;89.95
68251;DHT22;55066;51.560;4.642;2024-03-08T10:40:03;7.94;89.77
68251;DHT22;55066;51.560;4.642;2024-03-08T10:42:51;7.94;89.33
68251;DHT22;55066;51.560;4.642;2024-03-08T10:45:31;7.91;89.45
68251;DHT22;55066;51.560;4.642;2024-03-08T10:48:14;7.90;89.75
68251;DHT22;55066;51.560;4.642;2024-03-08T10:50:41;8.25;89.33
68251;DHT22;55066;51.560;4.642;2024-03-08T10:53:11;8.44;89.95
68251;DHT22;55066;51.560;4.642;2024-03-08T10:55:40;8.52;89.55
68251;DHT22;55066;51.560;4.642;2024-03-08T10:58:06;8.42;89.17
68251;DHT22;55066;51.560;4.642;2024-03-08T11:00:34;8.37;90.35
68251;DHT22;55066;51.560;4.642;2024-03-08T11:03:00;8.41;89.74
68251;DHT22;55066;51.560;4.642;2024-03-08T11:05:38;8.51;88.01
68251;DHT22;55066;51.560;4.642;2024-03-08T11:08:24;8.84;87.89
68251;DHT22;55066;51.560;4.642;2024-03-08T11:10:53;8.75;88.44
68251;DHT22;55066;51.560;4.642;2024-03-08T11:13:38;8.69;92.44
68251;DHT22;55066;51.560;4.642;2024-03-08T11:19:44;9.14;89.83
68251;DHT22;55066;51.560;4.642;2024-03-08T11:21:43;9.27;89.41
68251;DHT22;55066;51.560;4.642;2024-03-08T11:24:13;9.20;89.28
68251;DHT22;55066;51.560;4.642;2024-03-08T11:26:39;9.55;86.16
68251;DHT22;55066;51.560;4.642;2024-03-08T11:29:38;9.56;92.26
68251;DHT22;55066;51.560;4.642;2024-03-08T11:32:12;9.42;89.64
68251;DHT22;55066;51.560;4.642;2024-03-08T11:34:40;9.23;87.72
68251;DHT22;55066;51.560;4.642;2024-03-08T11:37:19;9.49;89.46
68251;DHT22;55066;51.560;4.642;2024-03-08T11:39:53;9.59;87.13
68251;DHT22;55066;51.560;4.642;2024-03-08T11:42:25;9.73;87.93
68251;DHT22;55066;51.560;4.642;2024-03-08T11:44:52;9.68;88.29
68251;DHT22;55066;51.560;4.642;2024-03-08T11:47:18;9.69;87.95
68251;DHT22;55066;51.560;4.642;2024-03-08T11:49:44;9.89;87.36
68251;DHT22;55066;51.560;4.642;2024-03-08T11:52:18;10.06;87.01
68251;DHT22;55066;51.560;4.642;2024-03-08T11:54:54;9.90;89.55
68251;DHT22;55066;51.560;4.642;2024-03-08T11:57:23;9.99;89.82
68251;DHT22;55066;51.560;4.642;2024-03-08T11:59:52;10.06;85.71
68251;DHT22;55066;51.560;4.642;2024-03-08T12:02:18;10.20;86.06
68251;DHT22;55066;51.560;4.642;2024-03-08T12:04:59;10.24;84.29
68251;DHT22;55066;51.560;4.642;2024-03-08T12:07:25;10.25;83.31
68251;DHT22;55066;51.560;4.642;2024-03-08T12:10:21;10.62;86.99
68251;DHT22;55066;51.560;4.642;2024-03-08T12:12:49;10.48;86.11
68251;DHT22;55066;51.560;4.642;2024-03-08T12:15:22;10.54;87.83
68251;DHT22;55066;51.560;4.642;2024-03-08T12:17:50;10.54;87.74
68251;DHT22;55066;51.560;4.642;2024-03-08T12:20:28;10.68;83.38
68251;DHT22;55066;51.560;4.642;2024-03-08T12:22:58;10.89;86.12
68251;DHT22;55066;51.560;4.642;2024-03-08T12:25:31;11.09;84.64
68251;DHT22;55066;51.560;4.642;2024-03-08T12:28:07;11.03;86.77
68251;DHT22;55066;51.560;4.642;2024-03-08T12:30:45;11.06;83.36
68251;DHT22;55066;51.560;4.642;2024-03-08T12:33:11;11.10;87.41
68251;DHT22;55066;51.560;4.642;2024-03-08T12:35:38;11.26;85.30
68251;DHT22;55066;51.560;4.642;2024-03-08T12:38:06;11.31;81.61
68251;DHT22;55066;51.560;4.642;2024-03-08T12:40:34;11.34;85.33
68251;DHT22;55066;51.560;4.642;2024-03-08T12:43:07;11.58;84.08
68251;DHT22;55066;51.560;4.642;2024-03-08T12:45:33;11.40;87.79
68251;DHT22;55066;51.560;4.642;2024-03-08T12:47:58;11.30;81.98
68251;DHT22;55066;51.560;4.642;2024-03-08T12:50:25;11.23;85.02
68251;DHT22;55066;51.560;4.642;2024-03-08T12:52:51;11.37;84.69
68251;DHT22;55066;51.560;4.642;2024-03-08T12:55:21;11.41;85.15
68251;DHT22;55066;51.560;4.642;2024-03-08T12:57:56;11.64;81.69
68251;DHT22;55066;51.560;4.642;2024-03-08T13:00:41;11.60;81.33
68251;DHT22;55066;51.560;4.642;2024-03-08T13:03:36;11.35;80.71
68251;DHT22;55066;51.560;4.642;2024-03-08T13:06:07;11.88;82.91
68251;DHT22;55066;51.560;4.642;2024-03-08T13:09:05;11.93;80.85
68251;DHT22;55066;51.560;4.642;2024-03-08T13:12:25;11.88;85.69
68251;DHT22;55066;51.560;4.642;2024-03-08T13:14:52;12.07;84.13
68251;DHT22;55066;51.560;4.642;2024-03-08T13:17:18;12.10;85.83
68251;DHT22;55066;51.560;4.642;2024-03-08T13:19:44;12.03;82.11
68251;DHT22;55066;51.560;4.642;2024-03-08T13:22:11;12.10;89.39
68251;DHT22;55066;51.560;4.642;2024-03-08T13:24:40;12.26;84.99
68251;DHT22;55066;51.560;4.642;2024-03-08T13:27:12;11.95;86.97
68251;DHT22;55066;51.560;4.642;2024-03-08T13:29:51;12.10;81.65
68251;DHT22;55066;51.560;4.642;2024-03-08T13:32:18;12.05;80.42
68251;DHT22;55066;51.560;4.642;2024-03-08T13:35:09;12.02;80.61
68251;DHT22;55066;51.560;4.642;2024-03-08T13:37:44;12.10;82.48
68251;DHT22;55066;51.560;4.642;2024-03-08T13:40:13;12.33;88.26
68251;DHT22;55066;51.560;4.642;2024-03-08T13:42:48;12.23;81.01
68251;DHT22;55066;51.560;4.642;2024-03-08T13:45:18;12.51;87.30
68251;DHT22;55066;51.560;4.642;2024-03-08T13:47:53;12.29;88.02
68251;DHT22;55066;51.560;4.642;2024-03-08T13:50:21;12.22;85.23
68251;DHT22;55066;51.560;4.642;2024-03-08T13:52:51;12.09;82.63
68251;DHT22;55066;51.560;4.642;2024-03-08T13:55:23;12.26;84.35
68251;DHT22;55066;51.560;4.642;2024-03-08T13:57:53;12.32;82.03
68251;DHT22;55066;51.560;4.642;2024-03-08T14:00:21;12.37;85.60
68251;DHT22;55066;51.560;4.642;2024-03-08T14:02:54;12.32;80.33
68251;DHT22;55066;51.560;4.642;2024-03-08T14:05:24;12.32;81.14
68251;DHT22;55066;51.560;4.642;2024-03-08T14:07:53;12.55;87.83
68251;DHT22;55066;51.560;4.642;2024-03-08T14:10:24;12.36;81.40
68251;DHT22;55066;51.560;4.642;2024-03-08T14:12:55;12.37;86.13
68251;DHT22;55066;51.560;4.642;2024-03-08T14:15:35;12.12;84.16
68251;DHT22;55066;51.560;4.642;2024-03-08T14:18:08;12.23;81.53
68251;DHT22;55066;51.560;4.642;2024-03-08T14:20:39;12.61;80.97
68251;DHT22;55066;51.560;4.642;2024-03-08T14:23:21;12.22;83.01
68251;DHT22;55066;51.560;4.642;2024-03-08T14:26:17;12.37;84.73
68251;DHT22;55066;51.560;4.642;2024-03-08T14:29:17;12.36;86.44
68251;DHT22;55066;51.560;4.642;2024-03-08T14:31:50;12.29;81.39
68251;DHT22;55066;51.560;4.642;2024-03-08T14:34:33;12.37;86.27
68251;DHT22;55066;51.560;4.642;2024-03-08T14:37:19;12.68;85.38
68251;DHT22;55066;51.560;4.642;2024-03-08T14:39:53;12.92;88.23
68251;DHT22;55066;51.560;4.642;2024-03-08T14:42:26;13.18;81.71
68251;DHT22;55066;51.560;4.642;2024-03-08T14:44:56;14.09;84.65
68251;DHT22;55066;51.560;4.642;2024-03-08T14:47:26;14.39;80.56
68251;DHT22;55066;51.560;4.642;2024-03-08T14:49:56;14.23;79.38
68251;DHT22;55066;51.560;4.642;2024-03-08T14:52:23;14.71;82.35
68251;DHT22;55066;51.560;4.642;2024-03-08T14:55:01;14.29;85.53
68251;DHT22;55066;51.560;4.642;2024-03-08T14:57:31;14.47;85.13
68251;DHT22;55066;51.560;4.642;2024-03-08T15:00:01;14.46;80.06
68251;DHT22;55066;51.560;4.642;2024-03-08T15:02:33;14.01;84.92
68251;DHT22;55066;51.560;4.642;2024-03-08T15:05:06;13.46;83.65
68251;DHT22;55066;51.560;4.642;2024-03-08T15:07:41;13.23;79.44
68251;DHT22;55066;51.560;4.642;2024-03-08T15:10:11;13.37;84.25
68251;DHT22;55066;51.560;4.642;2024-03-08T15:12:45;13.33;85.80
68251;DHT22;55066;51.560;4.642;2024-03-08T15:15:34;13.26;80.74
68251;DHT22;55066;51.560;4.642;2024-03-08T15:18:35;13.73;85.12
68251;DHT22;55066;51.560;4.642;2024-03-08T15:21:22;13.26;82.43
68251;DHT22;55066;51.560;4.642;2024-03-08T15:23:52;13.06;87.77
68251;DHT22;55066;51.560;4.642;2024-03-08T15:26:26;13.20;84.32
68251;DHT22;55066;51.560;4.642;2024-03-08T15:28:54;12.96;88.08
68251;DHT22;55066;51.560;4.642;2024-03-08T15:31:23;12.92;88.27
68251;DHT22;55066;51.560;4.642;2024-03-08T15:33:53;12.60;82.84
68251;DHT22;55066;51.560;4.642;2024-03-08T15:36:33;12.84;83.14
68251;DHT22;55066;51.560;4.642;2024-03-08T15:39:01;12.81;86.46
68251;DHT22;55066;51.560;4.642;2024-03-08T15:41:32;12.44;83.16
68251;DHT22;55066;51.560;4.642;2024-03-08T15:43:59;12.55;83.09
68251;DHT22;55066;51.560;4.642;2024-03-08T15:46:28;12.36;81.40
68251;DHT22;55066;51.560;4.642;2024-03-08T15:48:57;12.23;81.88
68251;DHT22;55066;51.560;4.642;2024-03-08T15:51:24;12.36;82.69
68251;DHT22;55066;51.560;4.642;2024-03-08T15:53:51;12.37;83.03
68251;DHT22;55066;51.560;4.642;2024-03-08T15:56:23;12.45;82.86
68251;DHT22;55066;51.560;4.642;2024-03-08T15:58:55;12.36;83.37